Friday, April 27, 2018, 6:23 AM GMT
Back to Local

CWZQ, Grand Etang, N. S.

Location: , , Canada Lat: 46.55
Local Time: 6:23 AM GMT ( 6:23 GMT) Lon: -61.05
Time Zone: GMT Elev: 42 ft

Show me the last for .
Show Coded

Time T Td Feel RH Dir Speed Gust Alt SLP Vis Weather Sky Remarks
2018-04-27 05:40 56 56 - 98 180° 18 28 - - 0 None
2018-04-27 04:40 56 56 - 100 160° 21 31 - - 0 None
2018-04-27 03:40 58 57 - 98 170° 23 33 - - 0 None
2018-04-27 02:20 57 57 - 100 170° 18 30 - - 0 None
2018-04-27 02:00 57 56 - 96 170° 18 30 - 29.70 0 Peak wind: 41 mph (36 kts) from 130° at 31 min
2018-04-27 00:40 57 57 - 100 150° 26 44 - - 0 None
2018-04-27 00:20 57 57 - 98 150° 29 43 - - 0 None
2018-04-26 23:40 57 56 - 96 160° 29 43 - - 0 None
2018-04-26 23:20 57 56 - 94 150° 33 47 - - 0 None
2018-04-26 22:40 57 56 - 98 150° 33 48 - - 0 None
2018-04-26 22:20 57 57 - 99 150° 35 47 - - 0 None
2018-04-26 21:40 56 57 - 101 140° 33 52 - - 0 None
2018-04-26 21:20 58 57 - 95 140° 33 53 - - 0 None
2018-04-26 21:00 58 57 - 99 140° 32 48 - 29.75 0 Peak wind: 51 mph (45 kts) from 120° at 12 min
2018-04-26 20:40 58 57 - 95 150° 31 44 - - 0 None
2018-04-26 20:20 58 57 - 96 140° 33 52 - - 0 None
2018-04-26 20:00 57 57 - 98 130° 37 56 - 29.75 0 Peak wind: 56 mph (49 kts) from 130° at 58 min
Pressure falling rapidly
2018-04-26 19:40 57 56 - 94 140° 36 49 - - 0 None
2018-04-26 19:20 58 56 - 94 140° 32 46 - - 0 None
2018-04-26 19:00 58 58 - 97 140° 30 41 - 29.83 0 Peak wind: 42 mph (37 kts) from 140° at 14 min
2018-04-26 18:40 58 57 - 95 140° 29 41 - - 0 None
2018-04-26 18:20 59 57 - 93 140° 29 43 - - 0 None
2018-04-26 18:00 59 56 - 90 150° 26 47 - 29.88 0 Peak wind: 47 mph (41 kts) from 140° at 35 min
Pressure falling rapidly
2018-04-26 17:40 59 56 - 91 150° 30 47 - - 0 None
2018-04-26 17:20 58 57 - 94 150° 26 40 - - 0 None
2018-04-26 17:00 58 56 - 93 160° 22 37 - 29.94 0 Peak wind: 41 mph (36 kts) from 140° at 25 min
2018-04-26 16:40 59 57 - 92 160° 21 32 - - 0 None
2018-04-26 16:20 60 57 - 89 150° 25 37 - - 0 None
2018-04-26 16:00 59 57 - 94 150° 24 36 - 29.98 0 Peak wind: 40 mph (35 kts) from 150° at 21 min
2018-04-26 15:40 59 56 - 90 150° 25 38 - - 0 None
2018-04-26 15:20 60 55 - 85 150° 26 38 - - 0 None
2018-04-26 15:00 60 54 - 81 150° 26 38 - 30.01 0 Peak wind: 46 mph (40 kts) from 160° at 47 min
2018-04-26 14:40 61 56 - 82 140° 22 39 - - 0 None
2018-04-26 14:20 61 55 - 81 150° 16 25 - - 0 None
2018-04-26 14:00 60 54 - 82 140° 28 44 - 30.03 0 Peak wind: 43 mph (38 kts) from 140° at 51 min
2018-04-26 12:40 58 54 - 84 150° 23 33 - - 0 None
2018-04-26 12:20 58 53 - 84 150° 21 31 - - 0 None
2018-04-26 12:00 57 53 - 86 150° 24 36 - 30.09 0 Peak wind: 40 mph (35 kts) from 140° at 32 min
2018-04-26 11:20 57 53 - 86 150° 26 38 - - 0 None
2018-04-26 11:00 56 53 - 86 160° 17 28 - 30.10 0 Peak wind: 27 mph (24 kts) from 160° at 54 min
2018-04-26 10:40 55 51 - 86 180° 10 21 - - 0 None
2018-04-26 10:20 55 52 - 87 160° 8 - - - 0 None
2018-04-26 10:00 54 50 - 88 150° 13 20 - 30.12 0 Peak wind: 26 mph (23 kts) from 140° at 14 min
2018-04-26 09:40 54 51 - 90 150° 15 - - - 0 None
2018-04-26 09:20 55 51 - 86 150° 16 26 - - 0 None
2018-04-26 09:00 54 50 - 87 160° 14 21 - 30.11 0 Peak wind: 24 mph (21 kts) from 160° at 26 min
2018-04-26 08:40 54 51 - 90 160° 14 21 - - 0 None
2018-04-26 08:20 54 51 - 89 150° 15 22 - - 0 None
2018-04-26 08:00 54 51 - 89 150° 15 21 - 30.12 0 Peak wind: 20 mph (18 kts) from 150° at 53 min
2018-04-26 07:40 55 52 - 89 150° 13 20 - - 0 None
2018-04-26 07:20 55 51 - 85 160° 12 - - - 0 None
2018-04-26 07:00 55 52 - 88 180° 10 - - 30.14 0 None
2018-04-26 06:40 55 51 - 83 170° 12 - - - 0 None

Support USWX by starting your Amazon purchase here.